sensor_id;sensor_type;location;lat;lon;timestamp;pressure;altitude;pressure_sealevel;temperature;humidity
41513;BME280;27244;59.940;30.280;2023-06-24T00:02:20;101007.69;;;25.10;52.51
41513;BME280;27244;59.940;30.280;2023-06-24T00:04:49;101009.59;;;25.13;51.83
41513;BME280;27244;59.940;30.280;2023-06-24T00:07:17;101011.63;;;25.12;51.53
41513;BME280;27244;59.940;30.280;2023-06-24T00:09:46;101008.00;;;25.12;51.22
41513;BME280;27244;59.940;30.280;2023-06-24T00:12:14;101005.56;;;25.14;51.17
41513;BME280;27244;59.940;30.280;2023-06-24T00:14:45;101003.97;;;25.13;50.91
41513;BME280;27244;59.940;30.280;2023-06-24T00:17:12;101002.03;;;25.10;51.32
41513;BME280;27244;59.940;30.280;2023-06-24T00:19:39;101010.84;;;25.12;50.94
41513;BME280;27244;59.940;30.280;2023-06-24T00:22:06;101018.50;;;25.11;50.69
41513;BME280;27244;59.940;30.280;2023-06-24T00:24:33;101019.31;;;25.12;50.70
41513;BME280;27244;59.940;30.280;2023-06-24T00:27:00;101017.72;;;25.11;50.61
41513;BME280;27244;59.940;30.280;2023-06-24T00:29:28;101019.31;;;25.12;50.44
41513;BME280;27244;59.940;30.280;2023-06-24T00:31:55;101007.69;;;25.10;50.63
41513;BME280;27244;59.940;30.280;2023-06-24T00:34:22;101012.88;;;25.11;50.25
41513;BME280;27244;59.940;30.280;2023-06-24T00:36:51;101018.50;;;25.11;50.24
41513;BME280;27244;59.940;30.280;2023-06-24T00:39:18;101018.19;;;25.09;50.37
41513;BME280;27244;59.940;30.280;2023-06-24T00:41:45;101023.03;;;25.09;50.33
41513;BME280;27244;59.940;30.280;2023-06-24T00:44:13;101027.44;;;25.10;50.79
41513;BME280;27244;59.940;30.280;2023-06-24T00:46:42;101029.00;;;25.11;50.42
41513;BME280;27244;59.940;30.280;2023-06-24T00:49:09;101037.13;;;25.09;50.46
41513;BME280;27244;59.940;30.280;2023-06-24T00:51:40;101038.72;;;25.10;50.70
41513;BME280;27244;59.940;30.280;2023-06-24T00:54:12;101037.94;;;25.09;50.36
41513;BME280;27244;59.940;30.280;2023-06-24T00:56:40;101029.09;;;25.07;50.19
41513;BME280;27244;59.940;30.280;2023-06-24T00:59:10;101035.44;;;25.11;50.41
41513;BME280;27244;59.940;30.280;2023-06-24T01:01:40;101051.59;;;25.11;50.00
41513;BME280;27244;59.940;30.280;2023-06-24T01:04:08;101050.81;;;25.10;50.39
41513;BME280;27244;59.940;30.280;2023-06-24T01:06:36;101042.00;;;25.08;50.22
41513;BME280;27244;59.940;30.280;2023-06-24T01:09:09;101033.53;;;25.08;50.32
41513;BME280;27244;59.940;30.280;2023-06-24T01:11:36;101034.41;;;25.05;50.37
41513;BME280;27244;59.940;30.280;2023-06-24T01:14:03;101036.34;;;25.08;50.69
41513;BME280;27244;59.940;30.280;2023-06-24T01:16:37;101045.94;;;25.11;49.86
41513;BME280;27244;59.940;30.280;2023-06-24T01:19:23;101058.63;;;25.19;49.96
41513;BME280;27244;59.940;30.280;2023-06-24T01:22:06;101055.47;;;25.17;49.89
41513;BME280;27244;59.940;30.280;2023-06-24T01:24:48;101047.00;;;25.17;49.97
41513;BME280;27244;59.940;30.280;2023-06-24T01:30:27;101044.50;;;25.19;50.06
41513;BME280;27244;59.940;30.280;2023-06-24T01:33:04;101047.53;;;25.12;50.03
41513;BME280;27244;59.940;30.280;2023-06-24T01:35:35;101044.38;;;25.10;50.09
41513;BME280;27244;59.940;30.280;2023-06-24T01:38:08;101048.75;;;25.11;49.71
41513;BME280;27244;59.940;30.280;2023-06-24T01:40:39;101067.41;;;25.08;49.60
41513;BME280;27244;59.940;30.280;2023-06-24T01:43:09;101047.63;;;25.08;50.05
41513;BME280;27244;59.940;30.280;2023-06-24T01:45:40;101053.28;;;25.08;49.57
41513;BME280;27244;59.940;30.280;2023-06-24T01:48:13;101046.84;;;25.08;49.79
41513;BME280;27244;59.940;30.280;2023-06-24T01:50:47;101048.44;;;25.09;49.71
41513;BME280;27244;59.940;30.280;2023-06-24T01:53:18;101049.75;;;25.04;49.95
41513;BME280;27244;59.940;30.280;2023-06-24T01:55:46;101036.91;;;25.03;50.00
41513;BME280;27244;59.940;30.280;2023-06-24T01:58:17;101048.88;;;25.07;49.66
41513;BME280;27244;59.940;30.280;2023-06-24T02:00:44;101037.25;;;25.05;49.77
41513;BME280;27244;59.940;30.280;2023-06-24T02:03:14;101038.38;;;25.08;49.83
41513;BME280;27244;59.940;30.280;2023-06-24T02:05:42;101034.41;;;25.05;50.07
41513;BME280;27244;59.940;30.280;2023-06-24T02:08:11;101031.59;;;25.05;50.13
41513;BME280;27244;59.940;30.280;2023-06-24T02:10:39;101025.94;;;25.05;49.55
41513;BME280;27244;59.940;30.280;2023-06-24T02:13:09;101021.09;;;25.06;49.44
41513;BME280;27244;59.940;30.280;2023-06-24T02:15:38;101030.38;;;25.06;49.94
41513;BME280;27244;59.940;30.280;2023-06-24T02:18:06;101032.41;;;25.06;49.69
41513;BME280;27244;59.940;30.280;2023-06-24T02:20:37;101023.47;;;25.07;49.96
41513;BME280;27244;59.940;30.280;2023-06-24T02:23:06;101023.94;;;25.06;49.69
41513;BME280;27244;59.940;30.280;2023-06-24T02:25:34;101026.75;;;25.06;49.61
41513;BME280;27244;59.940;30.280;2023-06-24T02:28:04;101021.91;;;25.06;49.66
41513;BME280;27244;59.940;30.280;2023-06-24T02:30:35;101024.25;;;25.08;49.75
41513;BME280;27244;59.940;30.280;2023-06-24T02:33:03;101016.25;;;25.06;49.67
41513;BME280;27244;59.940;30.280;2023-06-24T02:35:30;101021.09;;;25.06;50.02
41513;BME280;27244;59.940;30.280;2023-06-24T02:37:58;101018.28;;;25.06;49.91
41513;BME280;27244;59.940;30.280;2023-06-24T02:40:25;101013.88;;;25.05;49.74
41513;BME280;27244;59.940;30.280;2023-06-24T02:42:54;101008.22;;;25.05;49.88
41513;BME280;27244;59.940;30.280;2023-06-24T02:45:21;101006.63;;;25.04;49.63
41513;BME280;27244;59.940;30.280;2023-06-24T02:47:49;101004.16;;;25.06;49.89
41513;BME280;27244;59.940;30.280;2023-06-24T02:50:17;100998.53;;;25.06;49.66
41513;BME280;27244;59.940;30.280;2023-06-24T02:52:45;101009.00;;;25.05;49.61
41513;BME280;27244;59.940;30.280;2023-06-24T02:55:16;101007.78;;;25.06;50.10
41513;BME280;27244;59.940;30.280;2023-06-24T02:57:49;101014.66;;;25.05;49.82
41513;BME280;27244;59.940;30.280;2023-06-24T03:00:42;100999.41;;;25.03;49.72
41513;BME280;27244;59.940;30.280;2023-06-24T03:03:10;101012.63;;;25.06;49.75
41513;BME280;27244;59.940;30.280;2023-06-24T03:05:44;101013.44;;;25.06;49.53
41513;BME280;27244;59.940;30.280;2023-06-24T03:08:14;101016.25;;;25.06;49.80
41513;BME280;27244;59.940;30.280;2023-06-24T03:10:44;101022.69;;;25.07;49.89
41513;BME280;27244;59.940;30.280;2023-06-24T03:13:17;101024.34;;;25.04;49.93
41513;BME280;27244;59.940;30.280;2023-06-24T03:15:49;101026.75;;;25.06;49.89
41513;BME280;27244;59.940;30.280;2023-06-24T03:18:17;101025.94;;;25.05;49.76
41513;BME280;27244;59.940;30.280;2023-06-24T03:20:46;101029.56;;;25.06;50.02
41513;BME280;27244;59.940;30.280;2023-06-24T03:23:17;101026.75;;;25.06;50.27
41513;BME280;27244;59.940;30.280;2023-06-24T03:25:45;101030.00;;;25.04;49.96
41513;BME280;27244;59.940;30.280;2023-06-24T03:28:12;101029.22;;;25.04;50.14
41513;BME280;27244;59.940;30.280;2023-06-24T03:30:47;101030.38;;;25.06;49.78
41513;BME280;27244;59.940;30.280;2023-06-24T03:33:17;101029.22;;;25.04;49.88
41513;BME280;27244;59.940;30.280;2023-06-24T03:35:45;101036.00;;;25.06;49.81
41513;BME280;27244;59.940;30.280;2023-06-24T03:38:16;101036.00;;;25.06;49.65
41513;BME280;27244;59.940;30.280;2023-06-24T03:40:46;101041.19;;;25.08;50.06
41513;BME280;27244;59.940;30.280;2023-06-24T03:43:14;101039.28;;;25.05;49.98
41513;BME280;27244;59.940;30.280;2023-06-24T03:45:41;101027.75;;;24.99;50.10
41513;BME280;27244;59.940;30.280;2023-06-24T03:48:08;101038.03;;;25.06;49.72
41513;BME280;27244;59.940;30.280;2023-06-24T03:50:35;101037.25;;;25.05;49.61
41513;BME280;27244;59.940;30.280;2023-06-24T03:53:02;101028.44;;;25.03;49.58
41513;BME280;27244;59.940;30.280;2023-06-24T03:55:29;101033.28;;;25.03;50.24
41513;BME280;27244;59.940;30.280;2023-06-24T03:57:59;101048.88;;;25.07;50.17
41513;BME280;27244;59.940;30.280;2023-06-24T04:00:26;101032.50;;;25.02;49.70
41513;BME280;27244;59.940;30.280;2023-06-24T04:02:53;101057.78;;;25.06;49.86
41513;BME280;27244;59.940;30.280;2023-06-24T04:05:20;101049.31;;;25.06;49.76
41513;BME280;27244;59.940;30.280;2023-06-24T04:07:48;101053.75;;;25.07;49.67
41513;BME280;27244;59.940;30.280;2023-06-24T04:10:17;101058.59;;;25.06;49.84
41513;BME280;27244;59.940;30.280;2023-06-24T04:12:44;101050.56;;;25.05;50.06
41513;BME280;27244;59.940;30.280;2023-06-24T04:15:12;101050.91;;;25.07;49.79
41513;BME280;27244;59.940;30.280;2023-06-24T04:17:39;101049.31;;;25.06;49.91
41513;BME280;27244;59.940;30.280;2023-06-24T04:20:07;101039.72;;;25.03;50.06
41513;BME280;27244;59.940;30.280;2023-06-24T04:22:36;101053.06;;;25.03;49.92
41513;BME280;27244;59.940;30.280;2023-06-24T04:25:04;101059.03;;;25.05;50.05
41513;BME280;27244;59.940;30.280;2023-06-24T04:27:32;101057.44;;;25.04;49.97
41513;BME280;27244;59.940;30.280;2023-06-24T04:29:59;101071.13;;;25.05;49.89
41513;BME280;27244;59.940;30.280;2023-06-24T04:32:28;101069.41;;;25.08;49.67
41513;BME280;27244;59.940;30.280;2023-06-24T04:34:55;101079.91;;;25.07;49.78
41513;BME280;27244;59.940;30.280;2023-06-24T04:37:22;101080.38;;;25.06;49.93
41513;BME280;27244;59.940;30.280;2023-06-24T04:39:49;101070.31;;;25.05;49.92
41513;BME280;27244;59.940;30.280;2023-06-24T04:42:16;101083.19;;;25.06;49.95
41513;BME280;27244;59.940;30.280;2023-06-24T04:44:43;101083.19;;;25.06;50.07
41513;BME280;27244;59.940;30.280;2023-06-24T04:47:10;101080.38;;;25.06;49.78
41513;BME280;27244;59.940;30.280;2023-06-24T04:49:40;101084.78;;;25.07;49.92
41513;BME280;27244;59.940;30.280;2023-06-24T04:52:07;101083.19;;;25.06;50.12
41513;BME280;27244;59.940;30.280;2023-06-24T04:54:34;101091.66;;;25.06;49.78
41513;BME280;27244;59.940;30.280;2023-06-24T04:57:01;101092.47;;;25.06;49.98
41513;BME280;27244;59.940;30.280;2023-06-24T04:59:28;101086.03;;;25.06;50.08
41513;BME280;27244;59.940;30.280;2023-06-24T05:01:55;101082.84;;;25.04;50.33
41513;BME280;27244;59.940;30.280;2023-06-24T05:04:22;101084.44;;;25.05;50.14
41513;BME280;27244;59.940;30.280;2023-06-24T05:06:50;101083.19;;;25.06;50.34
41513;BME280;27244;59.940;30.280;2023-06-24T05:09:18;101084.00;;;25.06;50.28
41513;BME280;27244;59.940;30.280;2023-06-24T05:11:45;101086.81;;;25.06;50.06
41513;BME280;27244;59.940;30.280;2023-06-24T05:14:12;101086.81;;;25.06;50.30
41513;BME280;27244;59.940;30.280;2023-06-24T05:16:38;101090.44;;;25.07;50.08
41513;BME280;27244;59.940;30.280;2023-06-24T05:19:05;101091.22;;;25.07;50.06
41513;BME280;27244;59.940;30.280;2023-06-24T05:21:32;101084.00;;;25.06;50.02
41513;BME280;27244;59.940;30.280;2023-06-24T05:24:01;101091.66;;;25.06;50.27
41513;BME280;27244;59.940;30.280;2023-06-24T05:26:28;101092.47;;;25.06;50.40
41513;BME280;27244;59.940;30.280;2023-06-24T05:28:55;101094.03;;;25.07;49.85
41513;BME280;27244;59.940;30.280;2023-06-24T05:31:22;101100.94;;;25.06;50.04
41513;BME280;27244;59.940;30.280;2023-06-24T05:33:49;101099.44;;;25.02;50.26
41513;BME280;27244;59.940;30.280;2023-06-24T05:36:16;101099.34;;;25.05;50.42
41513;BME280;27244;59.940;30.280;2023-06-24T05:38:42;101118.66;;;25.07;50.17
41513;BME280;27244;59.940;30.280;2023-06-24T05:41:11;101119.00;;;25.09;50.30
41513;BME280;27244;59.940;30.280;2023-06-24T05:43:38;101110.97;;;25.07;49.99
41513;BME280;27244;59.940;30.280;2023-06-24T05:46:05;101115.06;;;25.06;50.21
41513;BME280;27244;59.940;30.280;2023-06-24T05:48:32;101114.25;;;25.06;50.34
41513;BME280;27244;59.940;30.280;2023-06-24T05:50:59;101116.72;;;25.04;50.10
41513;BME280;27244;59.940;30.280;2023-06-24T05:53:26;101114.25;;;25.06;50.07
41513;BME280;27244;59.940;30.280;2023-06-24T05:55:53;101115.84;;;25.07;50.33
41513;BME280;27244;59.940;30.280;2023-06-24T05:58:22;101116.19;;;25.09;49.97
41513;BME280;27244;59.940;30.280;2023-06-24T06:00:49;101110.19;;;25.07;50.04
41513;BME280;27244;59.940;30.280;2023-06-24T06:03:16;101112.22;;;25.06;49.95
41513;BME280;27244;59.940;30.280;2023-06-24T06:05:46;101113.69;;;25.11;50.23
41513;BME280;27244;59.940;30.280;2023-06-24T06:08:15;101110.19;;;25.07;49.76
41513;BME280;27244;59.940;30.280;2023-06-24T06:10:44;101109.84;;;25.05;50.15
41513;BME280;27244;59.940;30.280;2023-06-24T06:13:12;101115.38;;;25.08;50.13
41513;BME280;27244;59.940;30.280;2023-06-24T06:15:40;101114.59;;;25.08;50.00
41513;BME280;27244;59.940;30.280;2023-06-24T06:18:07;101120.69;;;25.06;50.00
41513;BME280;27244;59.940;30.280;2023-06-24T06:20:36;101125.88;;;25.08;49.97
41513;BME280;27244;59.940;30.280;2023-06-24T06:23:03;101113.78;;;25.07;49.67
41513;BME280;27244;59.940;30.280;2023-06-24T06:25:30;101118.75;;;25.03;49.96
41513;BME280;27244;59.940;30.280;2023-06-24T06:27:57;101129.16;;;25.06;49.94
41513;BME280;27244;59.940;30.280;2023-06-24T06:30:24;101133.53;;;25.07;49.96
41513;BME280;27244;59.940;30.280;2023-06-24T06:32:53;101130.06;;;25.03;49.89
41513;BME280;27244;59.940;30.280;2023-06-24T06:35:20;101130.72;;;25.07;49.90
41513;BME280;27244;59.940;30.280;2023-06-24T06:37:47;101131.53;;;25.08;49.96
41513;BME280;27244;59.940;30.280;2023-06-24T06:40:18;101131.63;;;25.33;49.50
41513;BME280;27244;59.940;30.280;2023-06-24T06:42:45;101127.81;;;25.11;50.15
41513;BME280;27244;59.940;30.280;2023-06-24T06:45:12;101131.53;;;25.08;49.97
41513;BME280;27244;59.940;30.280;2023-06-24T06:47:39;101130.28;;;25.09;50.05
41513;BME280;27244;59.940;30.280;2023-06-24T06:50:08;101128.28;;;25.09;50.28
41513;BME280;27244;59.940;30.280;2023-06-24T06:52:35;101133.22;;;25.05;50.22
41513;BME280;27244;59.940;30.280;2023-06-24T06:55:02;101140.00;;;25.08;49.90
41513;BME280;27244;59.940;30.280;2023-06-24T06:57:29;101127.91;;;25.07;49.72
41513;BME280;27244;59.940;30.280;2023-06-24T06:59:57;101113.22;;;25.00;50.17
41513;BME280;27244;59.940;30.280;2023-06-24T07:02:24;101111.44;;;25.06;49.92
41513;BME280;27244;59.940;30.280;2023-06-24T07:04:51;101112.31;;;25.03;49.96
41513;BME280;27244;59.940;30.280;2023-06-24T07:07:22;101108.16;;;25.07;49.87
41513;BME280;27244;59.940;30.280;2023-06-24T07:09:50;101115.13;;;25.31;49.58
41513;BME280;27244;59.940;30.280;2023-06-24T07:12:18;101114.94;;;25.10;50.04
41513;BME280;27244;59.940;30.280;2023-06-24T07:14:46;101116.19;;;25.09;50.22
41513;BME280;27244;59.940;30.280;2023-06-24T07:17:13;101115.38;;;25.08;50.10
41513;BME280;27244;59.940;30.280;2023-06-24T07:19:40;101115.47;;;25.05;49.81
41513;BME280;27244;59.940;30.280;2023-06-24T07:22:07;101109.41;;;25.06;50.04
41513;BME280;27244;59.940;30.280;2023-06-24T07:24:38;101112.94;;;25.10;50.13
41513;BME280;27244;59.940;30.280;2023-06-24T07:27:06;101121.03;;;25.08;49.85
41513;BME280;27244;59.940;30.280;2023-06-24T07:29:33;101110.19;;;25.07;49.99
41513;BME280;27244;59.940;30.280;2023-06-24T07:32:00;101109.72;;;25.08;50.04
41513;BME280;27244;59.940;30.280;2023-06-24T07:34:29;101106.56;;;25.06;50.04
41513;BME280;27244;59.940;30.280;2023-06-24T07:36:56;101116.59;;;25.07;49.79
41513;BME280;27244;59.940;30.280;2023-06-24T07:39:23;101113.78;;;25.07;49.68
41513;BME280;27244;59.940;30.280;2023-06-24T07:41:51;101117.41;;;25.08;49.88
41513;BME280;27244;59.940;30.280;2023-06-24T07:44:20;101104.09;;;25.08;49.70
41513;BME280;27244;59.940;30.280;2023-06-24T07:46:47;101119.00;;;25.09;49.98
41513;BME280;27244;59.940;30.280;2023-06-24T07:49:17;101111.44;;;25.06;49.78
41513;BME280;27244;59.940;30.280;2023-06-24T07:51:46;101113.78;;;25.07;49.66
41513;BME280;27244;59.940;30.280;2023-06-24T07:54:13;101111.75;;;25.08;49.66
41513;BME280;27244;59.940;30.280;2023-06-24T07:56:40;101109.50;;;25.03;49.70
41513;BME280;27244;59.940;30.280;2023-06-24T07:59:09;101114.59;;;25.08;49.84
41513;BME280;27244;59.940;30.280;2023-06-24T08:01:36;101110.53;;;25.09;49.92
41513;BME280;27244;59.940;30.280;2023-06-24T08:04:03;101111.75;;;25.08;49.73
41513;BME280;27244;59.940;30.280;2023-06-24T08:06:30;101102.97;;;25.06;49.91
41513;BME280;27244;59.940;30.280;2023-06-24T08:08:57;101107.38;;;25.07;49.79
41513;BME280;27244;59.940;30.280;2023-06-24T08:11:23;101106.91;;;25.08;49.63
41513;BME280;27244;59.940;30.280;2023-06-24T08:13:50;101108.94;;;25.08;49.55
41513;BME280;27244;59.940;30.280;2023-06-24T08:16:20;101104.09;;;25.08;49.92
41513;BME280;27244;59.940;30.280;2023-06-24T08:18:46;101101.28;;;25.08;49.65
41513;BME280;27244;59.940;30.280;2023-06-24T08:21:13;101112.56;;;25.08;49.67
41513;BME280;27244;59.940;30.280;2023-06-24T08:23:40;101098.13;;;25.06;49.59
41513;BME280;27244;59.940;30.280;2023-06-24T08:26:07;101091.78;;;25.02;49.83
41513;BME280;27244;59.940;30.280;2023-06-24T08:28:35;101104.09;;;25.08;49.51
41513;BME280;27244;59.940;30.280;2023-06-24T08:31:02;101101.28;;;25.08;49.46
41513;BME280;27244;59.940;30.280;2023-06-24T08:33:30;101104.88;;;25.09;49.80
41513;BME280;27244;59.940;30.280;2023-06-24T08:35:57;101104.09;;;25.08;49.72
41513;BME280;27244;59.940;30.280;2023-06-24T08:38:24;101092.00;;;25.08;49.60
41513;BME280;27244;59.940;30.280;2023-06-24T08:40:52;101104.09;;;25.08;49.72
41513;BME280;27244;59.940;30.280;2023-06-24T08:43:19;101104.09;;;25.08;49.54
41513;BME280;27244;59.940;30.280;2023-06-24T08:45:47;101102.50;;;25.07;49.67
41513;BME280;27244;59.940;30.280;2023-06-24T08:48:14;101105.69;;;25.09;49.83
41513;BME280;27244;59.940;30.280;2023-06-24T08:50:50;101102.75;;;25.13;49.56
41513;BME280;27244;59.940;30.280;2023-06-24T08:53:18;101106.47;;;25.10;49.51
41513;BME280;27244;59.940;30.280;2023-06-24T08:55:46;101111.75;;;25.08;49.62
41513;BME280;27244;59.940;30.280;2023-06-24T08:58:13;101116.19;;;25.09;49.38
41513;BME280;27244;59.940;30.280;2023-06-24T09:00:40;101115.38;;;25.08;49.55
41513;BME280;27244;59.940;30.280;2023-06-24T09:03:08;101108.94;;;25.08;49.69
41513;BME280;27244;59.940;30.280;2023-06-24T09:05:35;101110.97;;;25.07;49.45
41513;BME280;27244;59.940;30.280;2023-06-24T09:08:04;101112.13;;;25.10;49.39
41513;BME280;27244;59.940;30.280;2023-06-24T09:10:31;101113.34;;;25.09;49.47
41513;BME280;27244;59.940;30.280;2023-06-24T09:12:59;101112.13;;;25.10;49.65
41513;BME280;27244;59.940;30.280;2023-06-24T09:15:30;101114.47;;;25.11;49.59
41513;BME280;27244;59.940;30.280;2023-06-24T09:18:01;101121.28;;;25.14;49.61
41513;BME280;27244;59.940;30.280;2023-06-24T09:20:35;101123.41;;;25.10;49.53
41513;BME280;27244;59.940;30.280;2023-06-24T09:23:08;101138.22;;;25.14;49.68
41513;BME280;27244;59.940;30.280;2023-06-24T09:25:37;101150.38;;;25.11;49.22
41513;BME280;27244;59.940;30.280;2023-06-24T09:28:04;101143.72;;;25.05;49.51
41513;BME280;27244;59.940;30.280;2023-06-24T09:30:31;101150.84;;;25.09;49.29
41513;BME280;27244;59.940;30.280;2023-06-24T09:33:00;101156.50;;;25.09;49.39
41513;BME280;27244;59.940;30.280;2023-06-24T09:35:28;101154.91;;;25.08;49.65
41513;BME280;27244;59.940;30.280;2023-06-24T09:37:56;101146.09;;;25.06;49.49
41513;BME280;27244;59.940;30.280;2023-06-24T09:40:26;101157.28;;;25.10;49.19
41513;BME280;27244;59.940;30.280;2023-06-24T09:42:55;101164.16;;;25.09;49.22
41513;BME280;27244;59.940;30.280;2023-06-24T09:45:24;101147.31;;;25.05;49.17
41513;BME280;27244;59.940;30.280;2023-06-24T09:47:51;101161.34;;;25.09;49.26
41513;BME280;27244;59.940;30.280;2023-06-24T09:50:18;101167.00;;;25.09;49.05
41513;BME280;27244;59.940;30.280;2023-06-24T09:52:46;101164.59;;;25.07;49.39
41513;BME280;27244;59.940;30.280;2023-06-24T09:55:15;101166.66;;;25.07;49.14
41513;BME280;27244;59.940;30.280;2023-06-24T09:57:46;101174.94;;;25.14;49.32
41513;BME280;27244;59.940;30.280;2023-06-24T10:00:14;101169.38;;;25.10;49.25
41513;BME280;27244;59.940;30.280;2023-06-24T10:02:43;101165.75;;;25.10;49.33
41513;BME280;27244;59.940;30.280;2023-06-24T10:05:11;101167.31;;;25.11;49.56
41513;BME280;27244;59.940;30.280;2023-06-24T10:07:40;101159.31;;;25.09;49.08
41513;BME280;27244;59.940;30.280;2023-06-24T10:10:08;101163.38;;;25.08;49.26
41513;BME280;27244;59.940;30.280;2023-06-24T10:12:38;101167.69;;;25.13;49.17
41513;BME280;27244;59.940;30.280;2023-06-24T10:15:12;101174.56;;;25.12;49.43
41513;BME280;27244;59.940;30.280;2023-06-24T10:17:39;101183.50;;;25.10;49.25
41513;BME280;27244;59.940;30.280;2023-06-24T10:20:07;101188.69;;;25.12;49.24
41513;BME280;27244;59.940;30.280;2023-06-24T10:22:34;101189.91;;;25.11;49.33
41513;BME280;27244;59.940;30.280;2023-06-24T10:25:05;101206.09;;;25.10;49.14
41513;BME280;27244;59.940;30.280;2023-06-24T10:27:38;101199.44;;;25.17;49.26
41513;BME280;27244;59.940;30.280;2023-06-24T10:30:17;101200.25;;;25.17;49.08
41513;BME280;27244;59.940;30.280;2023-06-24T10:32:45;101213.75;;;25.10;49.22
41513;BME280;27244;59.940;30.280;2023-06-24T10:35:26;101212.66;;;25.20;49.13
41513;BME280;27244;59.940;30.280;2023-06-24T10:37:57;101218.50;;;25.13;49.19
41513;BME280;27244;59.940;30.280;2023-06-24T10:40:36;101222.56;;;25.12;48.87
41513;BME280;27244;59.940;30.280;2023-06-24T10:43:25;101225.91;;;25.23;48.93
41513;BME280;27244;59.940;30.280;2023-06-24T10:45:55;101224.94;;;25.13;48.94
41513;BME280;27244;59.940;30.280;2023-06-24T10:48:23;101219.72;;;25.12;49.06
41513;BME280;27244;59.940;30.280;2023-06-24T10:50:50;101220.72;;;25.05;48.65
41513;BME280;27244;59.940;30.280;2023-06-24T10:53:27;101223.03;;;25.10;49.02
41513;BME280;27244;59.940;30.280;2023-06-24T10:55:57;101237.91;;;25.11;48.87
41513;BME280;27244;59.940;30.280;2023-06-24T10:58:24;101239.97;;;25.10;48.91
41513;BME280;27244;59.940;30.280;2023-06-24T11:00:51;101251.25;;;25.10;48.88
41513;BME280;27244;59.940;30.280;2023-06-24T11:03:19;101236.34;;;25.10;48.67
41513;BME280;27244;59.940;30.280;2023-06-24T11:05:48;101241.97;;;25.10;48.59
41513;BME280;27244;59.940;30.280;2023-06-24T11:08:16;101231.50;;;25.10;48.49
41513;BME280;27244;59.940;30.280;2023-06-24T11:10:44;101223.88;;;25.07;48.48
41513;BME280;27244;59.940;30.280;2023-06-24T11:13:11;101225.03;;;25.10;48.58
41513;BME280;27244;59.940;30.280;2023-06-24T11:15:39;101222.66;;;25.08;48.57
41513;BME280;27244;59.940;30.280;2023-06-24T11:18:08;101229.44;;;25.11;48.18
41513;BME280;27244;59.940;30.280;2023-06-24T11:20:37;101222.56;;;25.12;48.21
41513;BME280;27244;59.940;30.280;2023-06-24T11:23:12;101218.03;;;25.14;48.41
41513;BME280;27244;59.940;30.280;2023-06-24T11:25:42;101225.47;;;25.08;48.18
41513;BME280;27244;59.940;30.280;2023-06-24T11:28:14;101228.09;;;25.15;48.47
41513;BME280;27244;59.940;30.280;2023-06-24T11:30:41;101227.41;;;25.11;48.09
41513;BME280;27244;59.940;30.280;2023-06-24T11:33:11;101234.41;;;25.07;47.90
41513;BME280;27244;59.940;30.280;2023-06-24T11:35:39;101227.41;;;25.11;48.10
41513;BME280;27244;59.940;30.280;2023-06-24T11:38:08;101225.38;;;25.12;48.01
41513;BME280;27244;59.940;30.280;2023-06-24T11:40:35;101231.50;;;25.10;48.23
41513;BME280;27244;59.940;30.280;2023-06-24T11:43:02;101230.69;;;25.10;48.18
41513;BME280;27244;59.940;30.280;2023-06-24T11:45:31;101235.44;;;25.13;47.99
41513;BME280;27244;59.940;30.280;2023-06-24T11:48:02;101231.41;;;25.14;48.13
41513;BME280;27244;59.940;30.280;2023-06-24T11:50:31;101237.91;;;25.11;47.76
41513;BME280;27244;59.940;30.280;2023-06-24T11:52:59;101237.91;;;25.11;48.18
41513;BME280;27244;59.940;30.280;2023-06-24T11:55:31;101229.09;;;25.09;48.01
41513;BME280;27244;59.940;30.280;2023-06-24T11:57:59;101243.22;;;25.09;47.79
41513;BME280;27244;59.940;30.280;2023-06-24T12:00:27;101237.56;;;25.09;47.88
41513;BME280;27244;59.940;30.280;2023-06-24T12:02:55;101256.53;;;25.08;47.76
41513;BME280;27244;59.940;30.280;2023-06-24T12:05:24;101241.63;;;25.08;48.08
41513;BME280;27244;59.940;30.280;2023-06-24T12:08:02;101240.63;;;25.14;47.78
41513;BME280;27244;59.940;30.280;2023-06-24T12:10:30;101243.53;;;25.11;47.96
41513;BME280;27244;59.940;30.280;2023-06-24T12:12:59;101244.81;;;25.10;47.83
41513;BME280;27244;59.940;30.280;2023-06-24T12:15:27;101237.13;;;25.10;48.27
41513;BME280;27244;59.940;30.280;2023-06-24T12:17:54;101238.69;;;25.11;48.07
41513;BME280;27244;59.940;30.280;2023-06-24T12:20:22;101228.66;;;25.10;47.82
41513;BME280;27244;59.940;30.280;2023-06-24T12:22:49;101240.72;;;25.11;47.97
41513;BME280;27244;59.940;30.280;2023-06-24T12:25:17;101239.97;;;25.10;48.07
41513;BME280;27244;59.940;30.280;2023-06-24T12:27:45;101249.66;;;25.09;47.91
41513;BME280;27244;59.940;30.280;2023-06-24T12:30:13;101239.97;;;25.10;47.59
41513;BME280;27244;59.940;30.280;2023-06-24T12:32:42;101238.69;;;25.11;47.71
41513;BME280;27244;59.940;30.280;2023-06-24T12:35:09;101242.31;;;25.12;47.49
41513;BME280;27244;59.940;30.280;2023-06-24T12:37:39;101233.16;;;25.08;47.66
41513;BME280;27244;59.940;30.280;2023-06-24T12:40:13;101225.94;;;25.07;47.83
41513;BME280;27244;59.940;30.280;2023-06-24T12:42:41;101237.47;;;25.12;47.75
41513;BME280;27244;59.940;30.280;2023-06-24T12:45:09;101230.69;;;25.10;47.95
41513;BME280;27244;59.940;30.280;2023-06-24T12:47:36;101231.81;;;25.12;47.69
41513;BME280;27244;59.940;30.280;2023-06-24T12:50:04;101250.78;;;25.12;47.77
41513;BME280;27244;59.940;30.280;2023-06-24T12:52:33;101249.19;;;25.11;47.75